sensor_id;sensor_type;location;lat;lon;timestamp;P1;durP1;ratioP1;P2;durP2;ratioP2
58878;SDS011;44660;42.664;23.266;2022-10-17T00:00:37;14.55;;;8.52;;
58878;SDS011;44660;42.664;23.266;2022-10-17T00:03:03;15.30;;;9.80;;
58878;SDS011;44660;42.664;23.266;2022-10-17T00:05:28;20.27;;;11.00;;
58878;SDS011;44660;42.664;23.266;2022-10-17T00:07:54;22.52;;;11.93;;
58878;SDS011;44660;42.664;23.266;2022-10-17T00:10:19;27.85;;;13.70;;
58878;SDS011;44660;42.664;23.266;2022-10-17T00:12:46;22.45;;;12.32;;
58878;SDS011;44660;42.664;23.266;2022-10-17T00:15:14;24.35;;;12.43;;
58878;SDS011;44660;42.664;23.266;2022-10-17T00:17:41;29.80;;;12.75;;
58878;SDS011;44660;42.664;23.266;2022-10-17T00:20:06;34.97;;;15.07;;
58878;SDS011;44660;42.664;23.266;2022-10-17T00:22:32;35.35;;;14.57;;
58878;SDS011;44660;42.664;23.266;2022-10-17T00:24:57;22.27;;;10.75;;
58878;SDS011;44660;42.664;23.266;2022-10-17T00:27:23;16.75;;;9.07;;
58878;SDS011;44660;42.664;23.266;2022-10-17T00:29:48;11.00;;;7.05;;
58878;SDS011;44660;42.664;23.266;2022-10-17T00:32:15;13.07;;;7.82;;
58878;SDS011;44660;42.664;23.266;2022-10-17T00:34:41;14.52;;;8.93;;
58878;SDS011;44660;42.664;23.266;2022-10-17T00:37:07;13.23;;;7.90;;
58878;SDS011;44660;42.664;23.266;2022-10-17T00:39:32;13.85;;;8.55;;
58878;SDS011;44660;42.664;23.266;2022-10-17T00:41:57;12.18;;;7.93;;
58878;SDS011;44660;42.664;23.266;2022-10-17T00:46:55;13.85;;;7.40;;
58878;SDS011;44660;42.664;23.266;2022-10-17T00:49:21;11.38;;;7.03;;
58878;SDS011;44660;42.664;23.266;2022-10-17T00:51:53;11.98;;;7.13;;
58878;SDS011;44660;42.664;23.266;2022-10-17T00:54:26;11.80;;;6.85;;
58878;SDS011;44660;42.664;23.266;2022-10-17T00:56:54;11.25;;;6.72;;
58878;SDS011;44660;42.664;23.266;2022-10-17T00:59:20;12.13;;;7.03;;
58878;SDS011;44660;42.664;23.266;2022-10-17T01:01:50;10.80;;;6.32;;
58878;SDS011;44660;42.664;23.266;2022-10-17T01:04:20;9.75;;;6.40;;
58878;SDS011;44660;42.664;23.266;2022-10-17T01:06:46;11.77;;;6.60;;
58878;SDS011;44660;42.664;23.266;2022-10-17T01:09:11;9.98;;;6.43;;
58878;SDS011;44660;42.664;23.266;2022-10-17T01:11:38;12.10;;;7.05;;
58878;SDS011;44660;42.664;23.266;2022-10-17T01:17:01;10.55;;;6.13;;
58878;SDS011;44660;42.664;23.266;2022-10-17T01:22:19;13.50;;;6.95;;
58878;SDS011;44660;42.664;23.266;2022-10-17T01:33:26;14.13;;;7.82;;
58878;SDS011;44660;42.664;23.266;2022-10-17T01:36:04;11.68;;;7.55;;
58878;SDS011;44660;42.664;23.266;2022-10-17T01:38:57;12.45;;;7.65;;
58878;SDS011;44660;42.664;23.266;2022-10-17T01:41:33;14.45;;;7.18;;
58878;SDS011;44660;42.664;23.266;2022-10-17T01:44:44;15.10;;;6.97;;
58878;SDS011;44660;42.664;23.266;2022-10-17T01:47:13;12.75;;;7.90;;
58878;SDS011;44660;42.664;23.266;2022-10-17T01:49:44;16.67;;;8.20;;
58878;SDS011;44660;42.664;23.266;2022-10-17T01:52:56;16.35;;;9.20;;
58878;SDS011;44660;42.664;23.266;2022-10-17T01:55:09;16.63;;;8.35;;
58878;SDS011;44660;42.664;23.266;2022-10-17T01:57:40;17.38;;;8.75;;
58878;SDS011;44660;42.664;23.266;2022-10-17T02:00:11;16.15;;;8.88;;
58878;SDS011;44660;42.664;23.266;2022-10-17T02:02:41;14.85;;;8.68;;
58878;SDS011;44660;42.664;23.266;2022-10-17T02:05:09;15.73;;;8.73;;
58878;SDS011;44660;42.664;23.266;2022-10-17T02:07:34;18.50;;;9.52;;
58878;SDS011;44660;42.664;23.266;2022-10-17T02:09:59;17.77;;;9.68;;
58878;SDS011;44660;42.664;23.266;2022-10-17T02:12:27;17.73;;;9.35;;
58878;SDS011;44660;42.664;23.266;2022-10-17T02:20:13;17.77;;;10.35;;
58878;SDS011;44660;42.664;23.266;2022-10-17T02:22:57;19.75;;;10.25;;
58878;SDS011;44660;42.664;23.266;2022-10-17T02:25:33;19.10;;;9.68;;
58878;SDS011;44660;42.664;23.266;2022-10-17T02:33:22;15.02;;;9.05;;
58878;SDS011;44660;42.664;23.266;2022-10-17T02:35:52;17.98;;;9.27;;
58878;SDS011;44660;42.664;23.266;2022-10-17T02:38:21;18.20;;;10.68;;
58878;SDS011;44660;42.664;23.266;2022-10-17T02:40:49;17.45;;;9.95;;
58878;SDS011;44660;42.664;23.266;2022-10-17T02:43:16;17.63;;;9.68;;
58878;SDS011;44660;42.664;23.266;2022-10-17T02:45:41;15.43;;;9.32;;
58878;SDS011;44660;42.664;23.266;2022-10-17T02:48:08;18.10;;;10.63;;
58878;SDS011;44660;42.664;23.266;2022-10-17T02:50:51;17.35;;;9.52;;
58878;SDS011;44660;42.664;23.266;2022-10-17T02:53:27;17.13;;;8.88;;
58878;SDS011;44660;42.664;23.266;2022-10-17T02:55:57;14.38;;;9.00;;
58878;SDS011;44660;42.664;23.266;2022-10-17T02:58:28;17.23;;;10.05;;
58878;SDS011;44660;42.664;23.266;2022-10-17T03:00:57;18.08;;;9.55;;
58878;SDS011;44660;42.664;23.266;2022-10-17T03:03:27;25.25;;;12.38;;
58878;SDS011;44660;42.664;23.266;2022-10-17T03:05:55;34.20;;;15.80;;
58878;SDS011;44660;42.664;23.266;2022-10-17T03:08:20;38.85;;;16.38;;
58878;SDS011;44660;42.664;23.266;2022-10-17T03:10:46;32.03;;;13.98;;
58878;SDS011;44660;42.664;23.266;2022-10-17T03:13:12;20.75;;;11.20;;
58878;SDS011;44660;42.664;23.266;2022-10-17T03:15:38;23.00;;;12.50;;
58878;SDS011;44660;42.664;23.266;2022-10-17T03:18:03;27.20;;;14.15;;
58878;SDS011;44660;42.664;23.266;2022-10-17T03:20:29;31.60;;;16.35;;
58878;SDS011;44660;42.664;23.266;2022-10-17T03:22:54;25.35;;;14.02;;
58878;SDS011;44660;42.664;23.266;2022-10-17T03:25:20;24.83;;;12.48;;
58878;SDS011;44660;42.664;23.266;2022-10-17T03:27:45;25.77;;;13.00;;
58878;SDS011;44660;42.664;23.266;2022-10-17T03:30:11;22.45;;;11.52;;
58878;SDS011;44660;42.664;23.266;2022-10-17T03:32:36;16.83;;;10.57;;
58878;SDS011;44660;42.664;23.266;2022-10-17T03:35:02;20.48;;;10.77;;
58878;SDS011;44660;42.664;23.266;2022-10-17T03:37:28;17.38;;;10.32;;
58878;SDS011;44660;42.664;23.266;2022-10-17T03:39:53;16.58;;;8.90;;
58878;SDS011;44660;42.664;23.266;2022-10-17T03:42:18;17.50;;;9.57;;
58878;SDS011;44660;42.664;23.266;2022-10-17T03:44:44;23.02;;;11.20;;
58878;SDS011;44660;42.664;23.266;2022-10-17T03:47:09;21.23;;;11.98;;
58878;SDS011;44660;42.664;23.266;2022-10-17T03:49:35;16.98;;;10.25;;
58878;SDS011;44660;42.664;23.266;2022-10-17T03:52:00;16.50;;;10.00;;
58878;SDS011;44660;42.664;23.266;2022-10-17T03:54:26;19.50;;;10.02;;
58878;SDS011;44660;42.664;23.266;2022-10-17T03:56:51;19.00;;;9.60;;
58878;SDS011;44660;42.664;23.266;2022-10-17T03:59:17;16.95;;;8.98;;
58878;SDS011;44660;42.664;23.266;2022-10-17T04:01:42;17.75;;;9.27;;
58878;SDS011;44660;42.664;23.266;2022-10-17T04:04:08;16.85;;;10.02;;
58878;SDS011;44660;42.664;23.266;2022-10-17T04:06:34;18.90;;;9.32;;
58878;SDS011;44660;42.664;23.266;2022-10-17T04:08:59;22.25;;;10.10;;
58878;SDS011;44660;42.664;23.266;2022-10-17T04:11:25;19.88;;;10.15;;
58878;SDS011;44660;42.664;23.266;2022-10-17T04:13:54;21.80;;;10.13;;
58878;SDS011;44660;42.664;23.266;2022-10-17T04:16:21;16.13;;;9.63;;
58878;SDS011;44660;42.664;23.266;2022-10-17T04:18:46;17.15;;;9.68;;
58878;SDS011;44660;42.664;23.266;2022-10-17T04:21:18;21.73;;;10.23;;
58878;SDS011;44660;42.664;23.266;2022-10-17T04:23:43;20.80;;;11.20;;
58878;SDS011;44660;42.664;23.266;2022-10-17T04:26:09;21.33;;;10.30;;
58878;SDS011;44660;42.664;23.266;2022-10-17T04:28:34;58.53;;;32.58;;
58878;SDS011;44660;42.664;23.266;2022-10-17T04:31:03;36.05;;;22.13;;
58878;SDS011;44660;42.664;23.266;2022-10-17T04:33:30;21.95;;;12.70;;
58878;SDS011;44660;42.664;23.266;2022-10-17T04:35:57;27.58;;;15.15;;
58878;SDS011;44660;42.664;23.266;2022-10-17T04:38:24;49.97;;;25.40;;
58878;SDS011;44660;42.664;23.266;2022-10-17T04:40:50;92.03;;;47.45;;
58878;SDS011;44660;42.664;23.266;2022-10-17T04:43:15;62.55;;;35.78;;
58878;SDS011;44660;42.664;23.266;2022-10-17T04:45:41;54.17;;;31.30;;
58878;SDS011;44660;42.664;23.266;2022-10-17T04:48:06;55.10;;;29.25;;
58878;SDS011;44660;42.664;23.266;2022-10-17T04:50:31;35.28;;;20.77;;
58878;SDS011;44660;42.664;23.266;2022-10-17T04:52:57;22.92;;;12.75;;
58878;SDS011;44660;42.664;23.266;2022-10-17T04:55:23;47.72;;;25.23;;
58878;SDS011;44660;42.664;23.266;2022-10-17T04:57:48;51.90;;;28.50;;
58878;SDS011;44660;42.664;23.266;2022-10-17T05:00:14;32.60;;;18.23;;
58878;SDS011;44660;42.664;23.266;2022-10-17T05:02:39;22.20;;;12.43;;
58878;SDS011;44660;42.664;23.266;2022-10-17T05:05:05;17.27;;;10.18;;
58878;SDS011;44660;42.664;23.266;2022-10-17T05:07:31;17.23;;;10.10;;
58878;SDS011;44660;42.664;23.266;2022-10-17T05:09:56;21.38;;;9.90;;
58878;SDS011;44660;42.664;23.266;2022-10-17T05:12:22;20.15;;;10.55;;
58878;SDS011;44660;42.664;23.266;2022-10-17T05:14:48;29.38;;;11.07;;
58878;SDS011;44660;42.664;23.266;2022-10-17T05:17:13;18.80;;;9.55;;
58878;SDS011;44660;42.664;23.266;2022-10-17T05:19:39;18.42;;;9.52;;
58878;SDS011;44660;42.664;23.266;2022-10-17T05:22:04;33.17;;;16.33;;
58878;SDS011;44660;42.664;23.266;2022-10-17T05:24:30;68.32;;;36.05;;
58878;SDS011;44660;42.664;23.266;2022-10-17T05:26:55;31.13;;;16.65;;
58878;SDS011;44660;42.664;23.266;2022-10-17T05:29:21;22.25;;;13.35;;
58878;SDS011;44660;42.664;23.266;2022-10-17T05:31:46;24.85;;;11.63;;
58878;SDS011;44660;42.664;23.266;2022-10-17T05:34:12;25.55;;;11.77;;
58878;SDS011;44660;42.664;23.266;2022-10-17T05:36:37;20.83;;;10.40;;
58878;SDS011;44660;42.664;23.266;2022-10-17T05:39:03;24.17;;;11.32;;
58878;SDS011;44660;42.664;23.266;2022-10-17T05:41:28;21.75;;;11.43;;
58878;SDS011;44660;42.664;23.266;2022-10-17T05:43:53;21.27;;;10.95;;
58878;SDS011;44660;42.664;23.266;2022-10-17T05:46:19;17.25;;;10.55;;
58878;SDS011;44660;42.664;23.266;2022-10-17T05:48:44;22.75;;;11.43;;
58878;SDS011;44660;42.664;23.266;2022-10-17T05:51:10;21.90;;;11.77;;
58878;SDS011;44660;42.664;23.266;2022-10-17T05:53:37;18.25;;;11.70;;
58878;SDS011;44660;42.664;23.266;2022-10-17T05:56:05;17.15;;;11.00;;
58878;SDS011;44660;42.664;23.266;2022-10-17T05:58:33;20.02;;;11.60;;
58878;SDS011;44660;42.664;23.266;2022-10-17T06:01:02;21.52;;;11.60;;
58878;SDS011;44660;42.664;23.266;2022-10-17T06:03:30;21.65;;;11.32;;
58878;SDS011;44660;42.664;23.266;2022-10-17T06:06:01;20.48;;;11.40;;
58878;SDS011;44660;42.664;23.266;2022-10-17T06:08:27;19.33;;;11.35;;
58878;SDS011;44660;42.664;23.266;2022-10-17T06:10:53;17.60;;;10.77;;
58878;SDS011;44660;42.664;23.266;2022-10-17T06:13:18;17.52;;;10.18;;
58878;SDS011;44660;42.664;23.266;2022-10-17T06:15:44;18.30;;;11.38;;
58878;SDS011;44660;42.664;23.266;2022-10-17T06:18:09;20.20;;;13.05;;
58878;SDS011;44660;42.664;23.266;2022-10-17T06:20:36;25.42;;;14.02;;
58878;SDS011;44660;42.664;23.266;2022-10-17T06:23:01;27.10;;;12.88;;
58878;SDS011;44660;42.664;23.266;2022-10-17T06:25:29;26.52;;;14.20;;
58878;SDS011;44660;42.664;23.266;2022-10-17T06:27:57;25.95;;;14.88;;
58878;SDS011;44660;42.664;23.266;2022-10-17T06:30:23;21.58;;;13.43;;
58878;SDS011;44660;42.664;23.266;2022-10-17T06:32:48;29.67;;;16.27;;
58878;SDS011;44660;42.664;23.266;2022-10-17T06:35:14;24.85;;;15.27;;
58878;SDS011;44660;42.664;23.266;2022-10-17T06:37:39;31.20;;;17.88;;
58878;SDS011;44660;42.664;23.266;2022-10-17T06:40:05;33.33;;;17.17;;
58878;SDS011;44660;42.664;23.266;2022-10-17T06:42:33;34.13;;;19.40;;
58878;SDS011;44660;42.664;23.266;2022-10-17T06:44:58;23.40;;;15.75;;
58878;SDS011;44660;42.664;23.266;2022-10-17T06:47:24;23.20;;;16.08;;
58878;SDS011;44660;42.664;23.266;2022-10-17T06:49:49;27.77;;;16.05;;
58878;SDS011;44660;42.664;23.266;2022-10-17T06:52:14;37.10;;;21.80;;
58878;SDS011;44660;42.664;23.266;2022-10-17T06:54:41;36.45;;;22.05;;
58878;SDS011;44660;42.664;23.266;2022-10-17T06:57:08;31.77;;;22.17;;
58878;SDS011;44660;42.664;23.266;2022-10-17T06:59:33;26.83;;;18.65;;
58878;SDS011;44660;42.664;23.266;2022-10-17T07:02:01;30.25;;;17.52;;
58878;SDS011;44660;42.664;23.266;2022-10-17T07:04:27;27.35;;;15.95;;
58878;SDS011;44660;42.664;23.266;2022-10-17T07:06:52;28.30;;;15.63;;
58878;SDS011;44660;42.664;23.266;2022-10-17T07:09:18;26.92;;;17.23;;
58878;SDS011;44660;42.664;23.266;2022-10-17T07:11:44;23.58;;;14.20;;
58878;SDS011;44660;42.664;23.266;2022-10-17T07:14:09;27.35;;;14.40;;
58878;SDS011;44660;42.664;23.266;2022-10-17T07:16:35;24.80;;;14.70;;
58878;SDS011;44660;42.664;23.266;2022-10-17T07:19:01;28.58;;;15.18;;
58878;SDS011;44660;42.664;23.266;2022-10-17T07:21:26;25.15;;;15.40;;
58878;SDS011;44660;42.664;23.266;2022-10-17T07:23:52;23.42;;;15.00;;
58878;SDS011;44660;42.664;23.266;2022-10-17T07:26:18;25.77;;;15.82;;
58878;SDS011;44660;42.664;23.266;2022-10-17T07:28:44;28.88;;;15.65;;
58878;SDS011;44660;42.664;23.266;2022-10-17T07:31:15;29.00;;;15.75;;
58878;SDS011;44660;42.664;23.266;2022-10-17T07:33:42;24.70;;;14.57;;
58878;SDS011;44660;42.664;23.266;2022-10-17T07:36:08;24.15;;;13.90;;
58878;SDS011;44660;42.664;23.266;2022-10-17T07:38:34;26.67;;;14.40;;
58878;SDS011;44660;42.664;23.266;2022-10-17T07:41:00;25.38;;;13.57;;
58878;SDS011;44660;42.664;23.266;2022-10-17T07:43:28;23.65;;;12.65;;
58878;SDS011;44660;42.664;23.266;2022-10-17T07:45:55;24.23;;;12.98;;
58878;SDS011;44660;42.664;23.266;2022-10-17T07:48:21;20.45;;;12.30;;
58878;SDS011;44660;42.664;23.266;2022-10-17T07:50:48;19.25;;;11.88;;
58878;SDS011;44660;42.664;23.266;2022-10-17T07:53:14;18.10;;;12.30;;
58878;SDS011;44660;42.664;23.266;2022-10-17T07:55:39;19.63;;;11.48;;
58878;SDS011;44660;42.664;23.266;2022-10-17T07:58:06;17.80;;;10.25;;
58878;SDS011;44660;42.664;23.266;2022-10-17T08:00:33;16.40;;;10.07;;
58878;SDS011;44660;42.664;23.266;2022-10-17T08:02:58;14.32;;;9.73;;
58878;SDS011;44660;42.664;23.266;2022-10-17T08:05:24;15.38;;;9.38;;
58878;SDS011;44660;42.664;23.266;2022-10-17T08:07:52;15.73;;;9.23;;
58878;SDS011;44660;42.664;23.266;2022-10-17T08:10:18;17.38;;;8.38;;
58878;SDS011;44660;42.664;23.266;2022-10-17T08:12:44;11.10;;;8.02;;
58878;SDS011;44660;42.664;23.266;2022-10-17T08:15:09;15.25;;;8.38;;
58878;SDS011;44660;42.664;23.266;2022-10-17T08:17:35;13.55;;;8.70;;
58878;SDS011;44660;42.664;23.266;2022-10-17T08:20:05;17.93;;;8.10;;
58878;SDS011;44660;42.664;23.266;2022-10-17T08:22:31;14.55;;;8.40;;
58878;SDS011;44660;42.664;23.266;2022-10-17T08:24:57;13.88;;;8.60;;
58878;SDS011;44660;42.664;23.266;2022-10-17T08:27:22;13.98;;;8.50;;
58878;SDS011;44660;42.664;23.266;2022-10-17T08:29:49;15.10;;;9.20;;
58878;SDS011;44660;42.664;23.266;2022-10-17T08:32:22;15.82;;;8.63;;
58878;SDS011;44660;42.664;23.266;2022-10-17T08:34:50;16.65;;;8.95;;
58878;SDS011;44660;42.664;23.266;2022-10-17T08:37:16;11.93;;;8.07;;
58878;SDS011;44660;42.664;23.266;2022-10-17T08:39:42;9.07;;;8.00;;
58878;SDS011;44660;42.664;23.266;2022-10-17T08:42:30;10.68;;;7.35;;
58878;SDS011;44660;42.664;23.266;2022-10-17T08:45:15;12.73;;;7.78;;
58878;SDS011;44660;42.664;23.266;2022-10-17T08:48:13;12.27;;;7.50;;
58878;SDS011;44660;42.664;23.266;2022-10-17T08:50:47;11.85;;;8.43;;
58878;SDS011;44660;42.664;23.266;2022-10-17T08:53:21;14.57;;;8.70;;
58878;SDS011;44660;42.664;23.266;2022-10-17T08:55:51;14.13;;;10.40;;
58878;SDS011;44660;42.664;23.266;2022-10-17T09:00:48;19.95;;;14.38;;
58878;SDS011;44660;42.664;23.266;2022-10-17T09:03:41;18.58;;;10.25;;
58878;SDS011;44660;42.664;23.266;2022-10-17T09:06:20;18.35;;;10.48;;
58878;SDS011;44660;42.664;23.266;2022-10-17T09:09:00;12.45;;;9.52;;
58878;SDS011;44660;42.664;23.266;2022-10-17T09:22:40;15.77;;;9.65;;
58878;SDS011;44660;42.664;23.266;2022-10-17T09:25:12;13.23;;;9.50;;
58878;SDS011;44660;42.664;23.266;2022-10-17T09:33:12;15.25;;;10.07;;
58878;SDS011;44660;42.664;23.266;2022-10-17T09:35:44;16.75;;;10.48;;
58878;SDS011;44660;42.664;23.266;2022-10-17T09:38:17;14.93;;;8.50;;
58878;SDS011;44660;42.664;23.266;2022-10-17T09:40:45;13.35;;;7.68;;
58878;SDS011;44660;42.664;23.266;2022-10-17T09:43:18;9.15;;;7.35;;
58878;SDS011;44660;42.664;23.266;2022-10-17T09:48:24;8.63;;;5.65;;
58878;SDS011;44660;42.664;23.266;2022-10-17T09:50:55;11.25;;;6.10;;
58878;SDS011;44660;42.664;23.266;2022-10-17T09:53:26;9.95;;;5.80;;
58878;SDS011;44660;42.664;23.266;2022-10-17T09:55:58;8.02;;;5.40;;
58878;SDS011;44660;42.664;23.266;2022-10-17T09:58:59;7.85;;;5.25;;
58878;SDS011;44660;42.664;23.266;2022-10-17T10:01:25;9.40;;;5.30;;
58878;SDS011;44660;42.664;23.266;2022-10-17T10:06:38;11.02;;;5.55;;
58878;SDS011;44660;42.664;23.266;2022-10-17T10:09:05;6.03;;;4.55;;
58878;SDS011;44660;42.664;23.266;2022-10-17T10:11:51;5.68;;;4.18;;
58878;SDS011;44660;42.664;23.266;2022-10-17T10:16:59;6.22;;;4.25;;
58878;SDS011;44660;42.664;23.266;2022-10-17T10:22:04;5.77;;;3.60;;
58878;SDS011;44660;42.664;23.266;2022-10-17T10:24:38;4.63;;;3.33;;
58878;SDS011;44660;42.664;23.266;2022-10-17T10:27:04;5.95;;;3.60;;
58878;SDS011;44660;42.664;23.266;2022-10-17T10:29:31;5.47;;;3.08;;
58878;SDS011;44660;42.664;23.266;2022-10-17T10:32:33;7.13;;;3.40;;
58878;SDS011;44660;42.664;23.266;2022-10-17T10:34:57;5.35;;;3.03;;
58878;SDS011;44660;42.664;23.266;2022-10-17T10:37:28;8.88;;;4.50;;
58878;SDS011;44660;42.664;23.266;2022-10-17T10:40:00;6.63;;;2.45;;
58878;SDS011;44660;42.664;23.266;2022-10-17T10:44:54;9.75;;;3.85;;
58878;SDS011;44660;42.664;23.266;2022-10-17T10:47:28;6.28;;;3.05;;
58878;SDS011;44660;42.664;23.266;2022-10-17T10:55:55;5.63;;;2.65;;
58878;SDS011;44660;42.664;23.266;2022-10-17T11:12:26;5.45;;;2.40;;
58878;SDS011;44660;42.664;23.266;2022-10-17T11:18:01;3.65;;;2.47;;
58878;SDS011;44660;42.664;23.266;2022-10-17T11:23:29;7.45;;;3.58;;
58878;SDS011;44660;42.664;23.266;2022-10-17T11:26:12;8.80;;;4.65;;
58878;SDS011;44660;42.664;23.266;2022-10-17T11:28:49;4.65;;;2.78;;
58878;SDS011;44660;42.664;23.266;2022-10-17T11:31:16;5.97;;;2.20;;
58878;SDS011;44660;42.664;23.266;2022-10-17T11:36:23;5.22;;;2.50;;
58878;SDS011;44660;42.664;23.266;2022-10-17T11:39:00;7.30;;;2.40;;
58878;SDS011;44660;42.664;23.266;2022-10-17T11:41:42;7.57;;;3.22;;
58878;SDS011;44660;42.664;23.266;2022-10-17T11:44:19;5.35;;;2.50;;
58878;SDS011;44660;42.664;23.266;2022-10-17T11:50:02;5.95;;;2.83;;
58878;SDS011;44660;42.664;23.266;2022-10-17T11:55:10;12.15;;;5.45;;
58878;SDS011;44660;42.664;23.266;2022-10-17T12:02:56;4.22;;;2.42;;
58878;SDS011;44660;42.664;23.266;2022-10-17T12:21:26;5.70;;;2.78;;
58878;SDS011;44660;42.664;23.266;2022-10-17T12:23:52;7.13;;;3.90;;
58878;SDS011;44660;42.664;23.266;2022-10-17T12:26:25;3.92;;;2.67;;
58878;SDS011;44660;42.664;23.266;2022-10-17T12:28:52;4.88;;;2.70;;
58878;SDS011;44660;42.664;23.266;2022-10-17T12:33:58;6.32;;;3.40;;
58878;SDS011;44660;42.664;23.266;2022-10-17T12:42:19;6.75;;;3.60;;
58878;SDS011;44660;42.664;23.266;2022-10-17T12:54:56;8.35;;;4.53;;
58878;SDS011;44660;42.664;23.266;2022-10-17T13:00:14;4.10;;;2.78;;
58878;SDS011;44660;42.664;23.266;2022-10-17T13:02:46;4.85;;;3.20;;
58878;SDS011;44660;42.664;23.266;2022-10-17T13:05:32;4.18;;;2.78;;
58878;SDS011;44660;42.664;23.266;2022-10-17T13:08:01;4.75;;;2.80;;
58878;SDS011;44660;42.664;23.266;2022-10-17T13:10:31;5.13;;;3.47;;
58878;SDS011;44660;42.664;23.266;2022-10-17T13:13:05;5.25;;;2.80;;
58878;SDS011;44660;42.664;23.266;2022-10-17T13:15:52;8.70;;;3.33;;
58878;SDS011;44660;42.664;23.266;2022-10-17T13:18:26;6.25;;;2.63;;
58878;SDS011;44660;42.664;23.266;2022-10-17T13:20:56;7.00;;;3.85;;
58878;SDS011;44660;42.664;23.266;2022-10-17T13:23:34;3.78;;;2.63;;
58878;SDS011;44660;42.664;23.266;2022-10-17T13:26:24;4.50;;;2.30;;
58878;SDS011;44660;42.664;23.266;2022-10-17T13:29:03;11.80;;;6.28;;
58878;SDS011;44660;42.664;23.266;2022-10-17T13:31:37;8.20;;;4.40;;
58878;SDS011;44660;42.664;23.266;2022-10-17T13:34:05;8.70;;;3.55;;
58878;SDS011;44660;42.664;23.266;2022-10-17T13:36:40;8.07;;;2.85;;
58878;SDS011;44660;42.664;23.266;2022-10-17T13:39:08;6.10;;;3.88;;
58878;SDS011;44660;42.664;23.266;2022-10-17T13:41:37;6.32;;;3.47;;
58878;SDS011;44660;42.664;23.266;2022-10-17T13:44:26;11.30;;;5.68;;
58878;SDS011;44660;42.664;23.266;2022-10-17T13:46:51;11.13;;;5.90;;
58878;SDS011;44660;42.664;23.266;2022-10-17T13:49:38;6.50;;;4.10;;
58878;SDS011;44660;42.664;23.266;2022-10-17T13:52:05;5.05;;;3.05;;
58878;SDS011;44660;42.664;23.266;2022-10-17T13:54:40;7.68;;;3.92;;
58878;SDS011;44660;42.664;23.266;2022-10-17T13:57:40;11.05;;;3.50;;
58878;SDS011;44660;42.664;23.266;2022-10-17T13:59:59;4.75;;;2.47;;
58878;SDS011;44660;42.664;23.266;2022-10-17T14:02:30;5.88;;;2.80;;
58878;SDS011;44660;42.664;23.266;2022-10-17T14:05:02;6.00;;;2.33;;
58878;SDS011;44660;42.664;23.266;2022-10-17T14:07:59;5.30;;;2.65;;
58878;SDS011;44660;42.664;23.266;2022-10-17T14:10:31;4.95;;;2.42;;
58878;SDS011;44660;42.664;23.266;2022-10-17T14:12:59;7.20;;;2.55;;
58878;SDS011;44660;42.664;23.266;2022-10-17T14:15:29;4.07;;;2.10;;
58878;SDS011;44660;42.664;23.266;2022-10-17T14:18:03;7.05;;;2.70;;
58878;SDS011;44660;42.664;23.266;2022-10-17T14:20:33;8.57;;;2.78;;
58878;SDS011;44660;42.664;23.266;2022-10-17T14:23:00;12.00;;;2.85;;
58878;SDS011;44660;42.664;23.266;2022-10-17T14:25:30;5.50;;;2.75;;
58878;SDS011;44660;42.664;23.266;2022-10-17T14:30:48;5.28;;;2.92;;
58878;SDS011;44660;42.664;23.266;2022-10-17T14:33:22;8.43;;;3.08;;
58878;SDS011;44660;42.664;23.266;2022-10-17T14:35:52;4.55;;;2.75;;
58878;SDS011;44660;42.664;23.266;2022-10-17T14:38:19;6.50;;;2.88;;
58878;SDS011;44660;42.664;23.266;2022-10-17T14:40:54;7.35;;;2.88;;
58878;SDS011;44660;42.664;23.266;2022-10-17T14:43:26;4.50;;;2.97;;
58878;SDS011;44660;42.664;23.266;2022-10-17T14:45:57;8.13;;;2.80;;
58878;SDS011;44660;42.664;23.266;2022-10-17T14:48:24;4.88;;;3.20;;
58878;SDS011;44660;42.664;23.266;2022-10-17T14:53:30;4.68;;;3.13;;
58878;SDS011;44660;42.664;23.266;2022-10-17T14:55:59;6.57;;;3.00;;
58878;SDS011;44660;42.664;23.266;2022-10-17T14:58:27;4.95;;;2.90;;
58878;SDS011;44660;42.664;23.266;2022-10-17T15:00:55;5.32;;;3.50;;
58878;SDS011;44660;42.664;23.266;2022-10-17T15:03:21;6.53;;;3.55;;
58878;SDS011;44660;42.664;23.266;2022-10-17T15:05:48;8.25;;;4.05;;
58878;SDS011;44660;42.664;23.266;2022-10-17T15:08:15;8.55;;;4.75;;
58878;SDS011;44660;42.664;23.266;2022-10-17T15:10:42;7.68;;;3.78;;
58878;SDS011;44660;42.664;23.266;2022-10-17T15:13:09;8.45;;;3.30;;
58878;SDS011;44660;42.664;23.266;2022-10-17T15:15:35;5.30;;;3.13;;
58878;SDS011;44660;42.664;23.266;2022-10-17T15:18:02;5.80;;;3.72;;
58878;SDS011;44660;42.664;23.266;2022-10-17T15:20:28;5.80;;;3.65;;
58878;SDS011;44660;42.664;23.266;2022-10-17T15:22:58;7.20;;;3.30;;
58878;SDS011;44660;42.664;23.266;2022-10-17T15:25:25;7.55;;;3.40;;
58878;SDS011;44660;42.664;23.266;2022-10-17T15:27:51;9.70;;;4.28;;
58878;SDS011;44660;42.664;23.266;2022-10-17T15:30:25;9.25;;;4.07;;
58878;SDS011;44660;42.664;23.266;2022-10-17T15:32:52;8.73;;;4.80;;
58878;SDS011;44660;42.664;23.266;2022-10-17T15:35:18;7.95;;;4.38;;
58878;SDS011;44660;42.664;23.266;2022-10-17T15:37:45;9.73;;;4.30;;
58878;SDS011;44660;42.664;23.266;2022-10-17T15:42:47;8.57;;;4.13;;
58878;SDS011;44660;42.664;23.266;2022-10-17T15:45:13;6.47;;;4.05;;
58878;SDS011;44660;42.664;23.266;2022-10-17T15:47:40;9.80;;;4.40;;
58878;SDS011;44660;42.664;23.266;2022-10-17T15:50:09;6.13;;;3.75;;
58878;SDS011;44660;42.664;23.266;2022-10-17T15:52:38;8.60;;;3.83;;
58878;SDS011;44660;42.664;23.266;2022-10-17T15:55:05;9.88;;;4.43;;
58878;SDS011;44660;42.664;23.266;2022-10-17T15:57:34;12.32;;;4.30;;
58878;SDS011;44660;42.664;23.266;2022-10-17T16:02:29;19.70;;;5.57;;
58878;SDS011;44660;42.664;23.266;2022-10-17T16:04:54;20.38;;;6.25;;
58878;SDS011;44660;42.664;23.266;2022-10-17T16:07:20;11.13;;;5.22;;
58878;SDS011;44660;42.664;23.266;2022-10-17T16:09:46;12.82;;;5.57;;
58878;SDS011;44660;42.664;23.266;2022-10-17T16:12:14;15.00;;;5.57;;
58878;SDS011;44660;42.664;23.266;2022-10-17T16:14:45;11.70;;;5.30;;
58878;SDS011;44660;42.664;23.266;2022-10-17T16:17:12;16.05;;;5.65;;
58878;SDS011;44660;42.664;23.266;2022-10-17T16:19:40;12.35;;;5.60;;
58878;SDS011;44660;42.664;23.266;2022-10-17T16:22:08;15.75;;;6.18;;
58878;SDS011;44660;42.664;23.266;2022-10-17T16:24:45;23.53;;;8.47;;
58878;SDS011;44660;42.664;23.266;2022-10-17T16:27:10;20.98;;;7.72;;
58878;SDS011;44660;42.664;23.266;2022-10-17T16:29:36;16.52;;;7.22;;
58878;SDS011;44660;42.664;23.266;2022-10-17T16:32:01;18.67;;;6.80;;
58878;SDS011;44660;42.664;23.266;2022-10-17T16:34:26;15.38;;;7.32;;
58878;SDS011;44660;42.664;23.266;2022-10-17T16:36:54;21.75;;;8.80;;
58878;SDS011;44660;42.664;23.266;2022-10-17T16:39:19;24.85;;;8.60;;
58878;SDS011;44660;42.664;23.266;2022-10-17T16:41:45;20.40;;;7.85;;
58878;SDS011;44660;42.664;23.266;2022-10-17T16:44:11;14.18;;;6.80;;
58878;SDS011;44660;42.664;23.266;2022-10-17T16:46:38;16.80;;;8.23;;
58878;SDS011;44660;42.664;23.266;2022-10-17T16:49:04;16.70;;;8.77;;
58878;SDS011;44660;42.664;23.266;2022-10-17T16:51:31;24.00;;;11.00;;
58878;SDS011;44660;42.664;23.266;2022-10-17T16:53:59;30.65;;;16.67;;
58878;SDS011;44660;42.664;23.266;2022-10-17T16:56:25;29.55;;;16.42;;
58878;SDS011;44660;42.664;23.266;2022-10-17T16:58:57;31.83;;;18.45;;